Time;durP1;ratioP1;P1;durP2;ratioP2;P2;SDS_P1;SDS_P2;PMS_P1;PMS_P2;Temp;Humidity;BMP_temperature;BMP_pressure;BME280_temperature;BME280_humidity;BME280_pressure;Samples;Min_cycle;Max_cycle;Signal;HPM_P1;HPM_P2
2022/04/01 00:00:11;;;;;;;12.50;11.00;;;2.50;99.90;;;;;;2611615;39;20484;-76
2022/04/01 00:02:38;;;;;;;7.17;6.33;;;2.40;99.90;;;;;;2611838;54;20416;-76
2022/04/01 00:05:04;;;;;;;11.73;10.50;;;2.50;99.90;;;;;;2611761;54;20630;-76
2022/04/01 00:07:30;;;;;;;11.70;10.50;;;2.40;99.90;;;;;;2611675;39;20900;-76
2022/04/01 00:09:56;;;;;;;12.80;11.50;;;2.50;99.90;;;;;;2612697;39;20839;-75
2022/04/01 00:12:22;;;;;;;13.30;10.90;;;2.50;99.90;;;;;;2610416;47;20260;-76
2022/04/01 00:14:48;;;;;;;13.33;12.00;;;2.50;99.90;;;;;;2611600;46;20963;-75
2022/04/01 00:17:14;;;;;;;13.33;11.27;;;2.50;99.90;;;;;;2610543;39;20782;-75
2022/04/01 00:19:40;;;;;;;13.03;9.93;;;2.40;99.90;;;;;;2611964;54;20150;-75
2022/04/01 00:22:06;;;;;;;9.30;7.83;;;2.40;99.90;;;;;;2611864;54;20627;-75
2022/04/01 00:24:32;;;;;;;9.87;7.73;;;2.40;99.90;;;;;;2612937;54;20199;-75
2022/04/01 00:26:59;;;;;;;11.90;10.17;;;2.40;99.90;;;;;;2611652;54;20151;-75
2022/04/01 00:29:26;;;;;;;11.27;9.60;;;2.40;99.90;;;;;;2611806;54;20434;-75
2022/04/01 00:31:58;;;;;;;11.13;10.10;;;2.30;99.90;;;;;;2610920;51;20402;-76
2022/04/01 00:34:29;;;;;;;12.77;11.43;;;2.40;99.90;;;;;;2611327;54;20443;-75
2022/04/01 00:36:58;;;;;;;12.40;11.00;;;2.40;99.90;;;;;;2611632;47;20462;-76
2022/04/01 00:39:25;;;;;;;13.60;9.00;;;2.40;99.90;;;;;;2610635;51;20391;-75
2022/04/01 00:41:52;;;;;;;11.20;10.10;;;2.40;99.90;;;;;;2612109;54;20411;-75
2022/04/01 00:44:18;;;;;;;16.43;12.47;;;2.40;99.90;;;;;;2611087;54;20412;-75
2022/04/01 00:46:47;;;;;;;14.97;12.00;;;2.40;99.90;;;;;;2612294;54;20437;-77
2022/04/01 00:49:13;;;;;;;8.23;6.60;;;2.40;99.90;;;;;;2612472;54;20143;-75
2022/04/01 00:51:42;;;;;;;17.53;10.70;;;2.30;99.90;;;;;;2612758;31;20852;-74
2022/04/01 00:54:09;;;;;;;10.83;9.70;;;2.40;99.90;;;;;;2612061;54;20510;-76
2022/04/01 00:56:37;;;;;;;10.50;9.50;;;2.30;99.90;;;;;;2611975;54;20510;-78
2022/04/01 00:59:03;;;;;;;12.43;10.20;;;2.30;99.90;;;;;;2610831;54;20429;-75
2022/04/01 01:01:31;;;;;;;13.97;7.83;;;2.30;99.90;;;;;;2611036;54;20458;-75
2022/04/01 01:04:00;;;;;;;11.47;8.40;;;2.30;99.90;;;;;;2611964;47;20523;-74
2022/04/01 01:06:26;;;;;;;10.70;8.80;;;2.30;99.90;;;;;;2612181;54;20522;-75
2022/04/01 01:08:54;;;;;;;10.30;9.27;;;2.20;99.90;;;;;;2612159;47;20411;-75
2022/04/01 01:11:21;;;;;;;15.97;11.53;;;2.30;99.90;;;;;;2611684;54;20497;-75
2022/04/01 01:13:47;;;;;;;14.27;10.27;;;2.30;99.90;;;;;;2612243;54;20431;-75
2022/04/01 01:16:13;;;;;;;9.97;9.07;;;2.30;99.90;;;;;;2611839;54;20431;-75
2022/04/01 01:18:39;;;;;;;8.60;6.83;;;2.30;99.90;;;;;;2612812;54;20415;-74
2022/04/01 01:21:09;;;;;;;6.93;5.93;;;2.30;99.90;;;;;;2611889;47;20470;-74
2022/04/01 01:23:39;;;;;;;7.80;6.97;;;2.20;99.90;;;;;;2611769;39;20556;-74
2022/04/01 01:26:05;;;;;;;15.43;8.90;;;2.20;99.90;;;;;;2610226;54;20994;-74
2022/04/01 01:28:31;;;;;;;11.40;8.80;;;2.10;99.90;;;;;;2612621;47;20405;-75
2022/04/01 01:30:57;;;;;;;10.57;9.50;;;2.10;99.90;;;;;;2612738;54;20535;-75
2022/04/01 01:33:25;;;;;;;9.53;8.60;;;2.20;99.90;;;;;;2612448;54;20410;-75
2022/04/01 01:35:51;;;;;;;8.57;7.73;;;2.20;99.90;;;;;;2612860;47;20202;-76
2022/04/01 01:38:17;;;;;;;14.53;9.07;;;2.20;99.90;;;;;;2612154;54;20412;-75
2022/04/01 01:40:45;;;;;;;10.60;8.70;;;2.20;99.90;;;;;;2611741;47;20421;-75
2022/04/01 01:43:13;;;;;;;8.23;6.23;;;2.10;99.90;;;;;;2610928;54;20431;-75
2022/04/01 01:45:39;;;;;;;6.93;5.60;;;2.10;99.90;;;;;;2611875;39;20477;-79
2022/04/01 01:48:05;;;;;;;9.27;8.07;;;2.10;99.90;;;;;;2612960;54;20397;-74
2022/04/01 01:55:59;;;;;;;7.60;6.73;;;2.10;99.90;;;;;;2612841;54;20429;-75
2022/04/01 01:58:27;;;;;;;7.87;6.30;;;2.10;99.90;;;;;;2611791;47;20391;-75
2022/04/01 02:00:53;;;;;;;7.00;4.43;;;2.10;99.90;;;;;;2612024;47;20171;-75
2022/04/01 02:03:19;;;;;;;6.47;5.70;;;2.00;99.90;;;;;;2611232;47;20414;-74
2022/04/01 02:05:45;;;;;;;5.10;4.70;;;2.00;99.90;;;;;;2612118;54;20461;-75
2022/04/01 02:08:11;;;;;;;9.43;7.80;;;2.00;99.90;;;;;;2613143;54;20430;-74
2022/04/01 02:10:37;;;;;;;7.23;6.53;;;2.00;99.90;;;;;;2613210;54;20399;-75
2022/04/01 02:13:03;;;;;;;7.13;6.40;;;2.00;99.90;;;;;;2613026;54;20155;-76
2022/04/01 02:15:29;;;;;;;5.60;5.10;;;2.00;99.90;;;;;;2613014;51;20549;-75
2022/04/01 02:17:55;;;;;;;6.27;5.40;;;2.00;99.90;;;;;;2613021;46;20403;-74
2022/04/01 02:20:21;;;;;;;5.90;5.30;;;2.00;99.90;;;;;;2611568;47;20414;-75
2022/04/01 02:22:47;;;;;;;7.80;6.63;;;2.00;99.90;;;;;;2612745;50;20162;-74
2022/04/01 02:25:15;;;;;;;4.80;4.30;;;2.00;99.90;;;;;;2612772;46;20424;-75
2022/04/01 02:27:42;;;;;;;9.17;5.47;;;1.90;99.90;;;;;;2613828;47;20410;-75
2022/04/01 02:30:11;;;;;;;6.73;5.37;;;1.90;99.90;;;;;;2612196;46;20517;-75
2022/04/01 02:32:56;;;;;;;4.43;4.07;;;1.90;99.90;;;;;;2612749;54;20525;-75
2022/04/01 02:35:29;;;;;;;5.67;5.20;;;1.90;99.90;;;;;;2612778;39;20804;-75
2022/04/01 02:37:55;;;;;;;8.30;6.00;;;1.90;99.90;;;;;;2612865;54;20399;-75
2022/04/01 02:40:23;;;;;;;4.77;4.37;;;1.90;99.90;;;;;;2611546;54;20474;-75
2022/04/01 02:42:53;;;;;;;3.60;3.30;;;1.90;99.90;;;;;;2613532;39;20935;-76
2022/04/01 02:45:21;;;;;;;5.67;5.00;;;1.90;99.90;;;;;;2613669;47;20516;-75
2022/04/01 02:47:48;;;;;;;7.30;6.60;;;1.90;99.90;;;;;;2612554;47;20419;-75
2022/04/01 02:50:14;;;;;;;4.63;4.20;;;1.90;99.90;;;;;;2611159;47;20424;-74
2022/04/01 02:52:40;;;;;;;5.67;5.17;;;1.90;99.90;;;;;;2612189;54;20406;-75
2022/04/01 02:55:07;;;;;;;5.17;4.67;;;1.90;99.90;;;;;;2612080;39;20779;-75
2022/04/01 02:57:35;;;;;;;4.57;4.13;;;1.90;99.90;;;;;;2612336;54;20416;-74
2022/04/01 03:00:09;;;;;;;7.47;5.70;;;1.90;99.90;;;;;;2613476;47;20543;-75
2022/04/01 03:02:38;;;;;;;6.30;5.70;;;1.90;99.90;;;;;;2612818;47;20411;-74
2022/04/01 03:05:05;;;;;;;6.30;5.80;;;1.90;99.90;;;;;;2613088;54;20498;-75
2022/04/01 03:07:31;;;;;;;8.13;6.47;;;1.90;99.90;;;;;;2613674;54;20426;-75
2022/04/01 03:09:59;;;;;;;5.20;4.77;;;2.00;99.90;;;;;;2613204;54;20423;-75
2022/04/01 03:12:30;;;;;;;5.30;4.90;;;2.00;99.90;;;;;;2612688;46;20441;-74
2022/04/01 03:15:16;;;;;;;5.17;4.67;;;1.90;99.90;;;;;;2612043;47;20443;-74
2022/04/01 03:18:10;;;;;;;6.37;4.93;;;1.80;99.90;;;;;;2612181;47;20415;-75
2022/04/01 03:20:40;;;;;;;5.70;4.60;;;1.80;99.90;;;;;;2611469;47;20407;-77
2022/04/01 03:23:08;;;;;;;4.13;3.73;;;1.80;99.90;;;;;;2612162;54;21061;-75
2022/04/01 03:25:39;;;;;;;6.07;5.47;;;1.80;99.90;;;;;;2613132;47;20427;-74
2022/04/01 03:28:27;;;;;;;6.73;6.13;;;1.80;99.90;;;;;;2613853;54;20443;-74
2022/04/01 03:31:03;;;;;;;3.97;3.67;;;1.90;99.90;;;;;;2612908;39;20795;-75
2022/04/01 03:33:37;;;;;;;6.20;5.40;;;1.80;99.90;;;;;;2613235;54;20390;-75
2022/04/01 03:36:04;;;;;;;4.70;4.40;;;1.80;99.90;;;;;;2613460;39;20815;-75
2022/04/01 03:38:34;;;;;;;3.83;3.53;;;1.80;99.90;;;;;;2614238;39;20873;-75
2022/04/01 03:41:02;;;;;;;5.73;5.23;;;1.80;99.90;;;;;;2612755;39;20809;-75
2022/04/01 03:43:29;;;;;;;5.13;4.70;;;1.90;99.90;;;;;;2611999;48;21038;-74
2022/04/01 03:46:04;;;;;;;5.30;3.90;;;1.80;99.90;;;;;;2612615;51;20424;-74
2022/04/01 03:48:39;;;;;;;5.07;4.67;;;1.80;99.90;;;;;;2612143;47;20412;-75
2022/04/01 03:51:06;;;;;;;3.53;3.23;;;1.80;99.90;;;;;;2612483;47;21600;-75
2022/04/01 03:53:40;;;;;;;4.73;4.33;;;1.80;99.90;;;;;;2613240;54;20921;-75
2022/04/01 03:56:15;;;;;;;4.20;3.90;;;1.90;99.90;;;;;;2611875;54;20432;-74
2022/04/01 03:59:09;;;;;;;4.70;4.30;;;1.80;99.90;;;;;;2613290;54;20431;-74
2022/04/01 04:01:54;;;;;;;4.50;4.10;;;1.80;99.90;;;;;;2612302;54;20407;-74
2022/04/01 04:04:20;;;;;;;4.67;4.27;;;1.80;99.90;;;;;;2613066;39;20822;-73
2022/04/01 04:06:47;;;;;;;4.40;4.00;;;1.70;99.90;;;;;;2611026;54;20793;-74
2022/04/01 04:09:16;;;;;;;3.60;3.33;;;1.80;99.90;;;;;;2611337;54;20449;-74
2022/04/01 04:11:44;;;;;;;4.43;4.07;;;1.80;99.90;;;;;;2611986;39;20770;-74
2022/04/01 04:14:27;;;;;;;3.07;2.77;;;1.70;99.90;;;;;;2613065;54;20399;-75
2022/04/01 04:16:56;;;;;;;2.87;2.57;;;1.80;99.90;;;;;;2613480;39;20844;-76
2022/04/01 04:19:51;;;;;;;2.50;2.30;;;1.70;99.90;;;;;;2612350;47;20535;-74
2022/04/01 04:22:29;;;;;;;4.97;4.57;;;1.70;99.90;;;;;;2611168;47;20410;-74
2022/04/01 04:25:04;;;;;;;4.13;3.73;;;1.70;99.90;;;;;;2611956;47;20409;-74
2022/04/01 04:27:34;;;;;;;5.13;4.63;;;1.70;99.90;;;;;;2612542;54;20942;-74
2022/04/01 04:30:08;;;;;;;4.40;4.00;;;1.70;99.90;;;;;;2612591;39;20576;-74
2022/04/01 04:33:02;;;;;;;4.70;4.30;;;1.70;99.90;;;;;;2612900;54;20403;-74
2022/04/01 04:35:29;;;;;;;3.93;3.57;;;1.70;99.90;;;;;;2613427;39;20884;-75
2022/04/01 04:37:57;;;;;;;4.10;3.30;;;1.80;99.90;;;;;;2611306;54;20443;-73
2022/04/01 04:40:25;;;;;;;5.80;4.93;;;1.80;99.90;;;;;;2611026;47;20503;-75
2022/04/01 04:43:02;;;;;;;7.70;5.47;;;1.80;99.90;;;;;;2612322;54;20542;-75
2022/04/01 04:45:29;;;;;;;6.77;5.37;;;1.80;99.90;;;;;;2612197;54;20432;-75
2022/04/01 04:47:59;;;;;;;3.83;3.40;;;1.90;99.90;;;;;;2612847;54;20435;-74
2022/04/01 04:50:25;;;;;;;5.57;4.90;;;1.80;99.90;;;;;;2610539;54;20418;-75
2022/04/01 04:52:53;;;;;;;5.73;5.13;;;1.80;99.90;;;;;;2611682;54;20423;-74
2022/04/01 04:55:20;;;;;;;5.87;3.30;;;1.80;99.90;;;;;;2612800;47;20491;-75
2022/04/01 04:58:09;;;;;;;6.00;5.40;;;1.80;99.90;;;;;;2612261;46;20426;-74
2022/04/01 05:00:40;;;;;;;5.33;4.83;;;1.70;99.90;;;;;;2610815;54;20406;-75
2022/04/01 05:03:47;;;;;;;25.00;5.70;;;1.70;99.90;;;;;;2610800;47;20428;-75
2022/04/01 05:06:21;;;;;;;5.40;4.93;;;1.70;99.90;;;;;;2612854;47;20399;-76
2022/04/01 05:09:31;;;;;;;4.60;3.57;;;1.80;99.90;;;;;;2613703;39;21089;-75
2022/04/01 05:12:16;;;;;;;4.57;3.87;;;1.70;99.90;;;;;;2611459;47;20422;-74
2022/04/01 05:15:11;;;;;;;3.40;3.10;;;1.70;99.90;;;;;;2611350;54;20406;-75
2022/04/01 05:17:59;;;;;;;4.83;4.47;;;1.70;99.90;;;;;;2611621;47;20450;-74
2022/04/01 05:20:34;;;;;;;4.90;4.50;;;1.70;99.90;;;;;;2610116;47;20418;-75
2022/04/01 05:23:15;;;;;;;4.57;3.97;;;1.80;99.90;;;;;;2609155;54;20514;-75
2022/04/01 05:26:14;;;;;;;5.27;4.83;;;1.80;99.90;;;;;;2613077;54;20442;-75
2022/04/01 05:29:02;;;;;;;7.00;6.30;;;1.70;99.90;;;;;;2614147;54;20422;-75
2022/04/01 05:31:35;;;;;;;8.70;5.90;;;1.70;99.90;;;;;;2612864;39;21026;-77
2022/04/01 05:34:09;;;;;;;6.00;5.40;;;1.70;99.90;;;;;;2611841;54;20492;-74
2022/04/01 05:36:37;;;;;;;6.20;5.60;;;1.70;99.90;;;;;;2612507;47;20951;-74
2022/04/01 05:39:04;;;;;;;6.80;5.53;;;1.70;99.90;;;;;;2611290;47;20410;-76
2022/04/01 05:41:31;;;;;;;3.67;3.33;;;1.80;99.90;;;;;;2611369;54;20456;-73
2022/04/01 05:43:58;;;;;;;3.80;3.50;;;1.70;99.90;;;;;;2611694;54;20387;-74
2022/04/01 05:46:39;;;;;;;5.87;4.20;;;1.80;99.90;;;;;;2609323;54;20788;-75
2022/04/01 05:49:09;;;;;;;5.20;4.70;;;1.70;99.90;;;;;;2609289;39;22000;-75
2022/04/01 05:51:36;;;;;;;5.00;4.60;;;1.70;99.90;;;;;;2611639;54;20433;-73
2022/04/01 05:54:05;;;;;;;4.87;4.47;;;1.60;99.90;;;;;;2610307;54;20936;-74
2022/04/01 05:56:35;;;;;;;5.87;4.30;;;1.70;99.90;;;;;;2610643;54;20411;-74
2022/04/01 05:59:04;;;;;;;8.30;3.87;;;1.60;99.90;;;;;;2610394;51;20441;-74
2022/04/01 06:01:42;;;;;;;4.90;4.40;;;1.60;99.90;;;;;;2610903;47;20424;-75
2022/04/01 06:04:17;;;;;;;5.47;4.97;;;1.60;99.90;;;;;;2610432;46;20435;-74
2022/04/01 06:06:45;;;;;;;6.60;5.30;;;1.70;99.90;;;;;;2610687;47;20411;-74
2022/04/01 06:09:35;;;;;;;5.03;4.00;;;1.70;99.90;;;;;;2629502;36;20753;-73
2022/04/01 06:12:37;;;;;;;4.53;3.93;;;1.60;99.90;;;;;;2610655;54;20386;-74
2022/04/01 06:15:35;;;;;;;5.17;4.77;;;1.60;99.90;;;;;;2608661;54;20482;-73
2022/04/01 06:18:36;;;;;;;6.60;4.80;;;1.60;99.90;;;;;;2610531;47;20482;-74
2022/04/01 06:21:03;;;;;;;5.40;4.17;;;1.60;99.90;;;;;;2606972;54;20446;-74
2022/04/01 06:23:49;;;;;;;5.57;5.07;;;1.60;99.90;;;;;;2608440;39;21458;-75
2022/04/01 06:26:14;;;;;;;6.97;4.80;;;1.70;99.90;;;;;;2611136;47;20513;-75
2022/04/01 06:29:14;;;;;;;5.80;4.67;;;1.70;99.90;;;;;;2609740;47;20406;-74
2022/04/01 06:31:47;;;;;;;4.87;4.30;;;1.70;99.90;;;;;;2610284;54;20407;-74
2022/04/01 06:34:23;;;;;;;4.53;4.13;;;1.70;99.90;;;;;;2611319;54;20417;-73
2022/04/01 06:37:39;;;;;;;4.47;4.10;;;1.70;99.90;;;;;;2610736;47;20482;-73
2022/04/01 06:40:11;;;;;;;3.10;2.87;;;1.70;99.90;;;;;;2610855;54;20449;-74
2022/04/01 06:42:44;;;;;;;7.07;5.07;;;1.70;99.90;;;;;;2608415;47;20742;-73
2022/04/01 06:45:45;;;;;;;5.70;4.50;;;1.70;99.90;;;;;;2607948;54;20926;-74
2022/04/01 06:48:23;;;;;;;5.27;4.57;;;1.70;99.90;;;;;;2608138;54;20558;-74
2022/04/01 06:51:10;;;;;;;5.23;4.50;;;1.80;99.90;;;;;;2608230;54;20457;-76
2022/04/01 06:53:54;;;;;;;5.07;4.47;;;1.70;99.90;;;;;;2607382;54;20425;-75
2022/04/01 06:56:46;;;;;;;3.50;3.20;;;1.80;99.90;;;;;;2609941;54;20430;-75
2022/04/01 06:59:13;;;;;;;5.00;4.57;;;1.70;99.90;;;;;;2609825;47;20551;-76
2022/04/01 07:01:39;;;;;;;4.97;4.40;;;1.70;99.90;;;;;;2607489;54;20432;-76
2022/04/01 07:04:05;;;;;;;5.07;4.67;;;1.70;99.90;;;;;;2606621;54;20411;-73
2022/04/01 07:06:31;;;;;;;4.73;4.33;;;1.70;99.90;;;;;;2607599;54;20238;-74
2022/04/01 07:08:57;;;;;;;5.20;4.70;;;1.70;99.90;;;;;;2606830;54;20399;-75
2022/04/01 07:11:22;;;;;;;5.40;4.10;;;1.70;99.90;;;;;;2608884;39;20888;-75
2022/04/01 07:13:48;;;;;;;3.00;2.60;;;1.70;99.90;;;;;;2610494;54;20219;-74
2022/04/01 07:16:14;;;;;;;5.03;4.53;;;1.70;99.90;;;;;;2607282;54;20462;-74
2022/04/01 07:18:40;;;;;;;9.60;4.33;;;1.70;99.90;;;;;;2609447;54;20287;-75
2022/04/01 07:21:08;;;;;;;7.53;5.43;;;1.70;99.90;;;;;;2601017;54;20159;-75
2022/04/01 07:23:34;;;;;;;6.43;5.80;;;1.70;99.90;;;;;;2609712;54;20406;-73
2022/04/01 07:26:00;;;;;;;6.10;5.53;;;1.80;99.90;;;;;;2611180;31;21167;-74
2022/04/01 07:28:26;;;;;;;6.87;6.27;;;1.80;99.90;;;;;;2611572;54;20436;-74
2022/04/01 07:30:52;;;;;;;5.93;5.33;;;1.80;99.90;;;;;;2609434;54;20407;-75
2022/04/01 07:33:19;;;;;;;10.17;9.13;;;1.80;99.90;;;;;;2608842;51;20450;-75
2022/04/01 07:35:47;;;;;;;5.43;4.90;;;1.80;99.90;;;;;;2609723;54;20154;-74
2022/04/01 07:38:14;;;;;;;2.00;1.90;;;1.80;99.90;;;;;;2609164;54;21013;-76
2022/04/01 07:40:41;;;;;;;4.60;3.80;;;1.80;99.90;;;;;;2609210;54;20590;-74
2022/04/01 07:43:07;;;;;;;3.47;3.17;;;1.70;99.90;;;;;;2610362;54;20415;-75
2022/04/01 07:45:37;;;;;;;6.33;4.37;;;1.80;99.90;;;;;;2609283;47;20419;-73
2022/04/01 07:48:03;;;;;;;4.70;4.30;;;1.70;99.90;;;;;;2611343;51;20162;-74
2022/04/01 07:50:29;;;;;;;4.10;3.80;;;1.70;99.90;;;;;;2611679;54;20439;-74
2022/04/01 07:52:54;;;;;;;5.47;4.40;;;1.70;99.90;;;;;;2609627;47;20992;-75
2022/04/01 07:55:21;;;;;;;4.73;4.37;;;1.80;99.90;;;;;;2609553;39;20819;-73
2022/04/01 07:57:49;;;;;;;5.23;4.73;;;1.80;99.90;;;;;;2608762;47;20914;-74
2022/04/01 08:00:17;;;;;;;6.17;5.50;;;1.80;99.90;;;;;;2608192;54;20416;-74
2022/04/01 08:02:44;;;;;;;3.03;2.77;;;1.80;99.90;;;;;;2611180;39;20815;-73
2022/04/01 08:05:10;;;;;;;4.30;3.77;;;1.80;99.90;;;;;;2609132;46;20567;-73
2022/04/01 08:07:36;;;;;;;6.20;5.17;;;1.90;99.90;;;;;;2607464;47;21225;-74
2022/04/01 08:10:04;;;;;;;6.10;5.50;;;1.80;99.90;;;;;;2610606;54;20475;-73
2022/04/01 08:12:34;;;;;;;3.83;3.57;;;1.90;99.90;;;;;;2609261;54;20996;-73
2022/04/01 08:15:02;;;;;;;6.77;5.23;;;1.80;99.90;;;;;;2607866;47;20410;-73
2022/04/01 08:17:28;;;;;;;7.33;5.80;;;1.80;99.90;;;;;;2608150;54;20447;-75
2022/04/01 08:19:54;;;;;;;6.43;4.90;;;1.90;99.90;;;;;;2608267;47;20416;-75
2022/04/01 08:22:20;;;;;;;6.30;5.70;;;1.90;99.90;;;;;;2610056;54;20281;-75
2022/04/01 08:24:46;;;;;;;8.13;5.20;;;1.90;99.90;;;;;;2610118;31;20848;-73
2022/04/01 08:27:13;;;;;;;7.47;5.63;;;1.90;99.90;;;;;;2609993;54;20151;-74
2022/04/01 08:29:39;;;;;;;4.00;3.70;;;1.90;99.90;;;;;;2608807;47;20213;-74
2022/04/01 08:32:07;;;;;;;6.00;5.40;;;1.90;99.90;;;;;;2606585;54;20390;-75
2022/04/01 08:34:33;;;;;;;4.03;3.50;;;1.80;99.90;;;;;;2608164;54;20449;-74
2022/04/01 08:36:59;;;;;;;3.13;2.93;;;1.90;99.90;;;;;;2608803;54;20411;-74
2022/04/01 08:39:25;;;;;;;5.77;5.17;;;1.80;99.90;;;;;;2608047;54;21474;-74
2022/04/01 08:41:50;;;;;;;6.87;4.93;;;1.90;99.90;;;;;;2606419;54;20403;-74
2022/04/01 08:44:16;;;;;;;4.97;4.50;;;1.80;99.90;;;;;;2608060;31;20835;-74
2022/04/01 08:46:42;;;;;;;4.03;3.73;;;1.90;99.90;;;;;;2609361;47;20171;-75
2022/04/01 08:49:08;;;;;;;6.63;4.63;;;1.90;99.90;;;;;;2607942;54;20155;-74
2022/04/01 08:51:34;;;;;;;4.50;3.17;;;1.90;99.90;;;;;;2608649;47;20170;-74
2022/04/01 08:54:00;;;;;;;5.70;3.60;;;1.90;99.90;;;;;;2611201;54;20663;-74
2022/04/01 08:56:26;;;;;;;5.43;4.93;;;1.80;99.90;;;;;;2609841;54;20425;-74
2022/04/01 08:58:52;;;;;;;5.80;5.30;;;1.80;99.90;;;;;;2608449;47;20545;-73
2022/04/01 09:01:18;;;;;;;4.97;4.27;;;1.80;99.90;;;;;;2608198;54;20262;-73
2022/04/01 09:03:44;;;;;;;5.60;4.93;;;1.90;99.90;;;;;;2609899;39;20724;-75
2022/04/01 09:06:10;;;;;;;9.10;3.93;;;1.90;99.90;;;;;;2607598;54;20193;-74
2022/04/01 09:08:41;;;;;;;4.20;3.30;;;2.00;99.90;;;;;;2610012;39;20791;-75
2022/04/01 09:11:09;;;;;;;6.63;4.77;;;2.00;99.90;;;;;;2608137;46;20450;-73
2022/04/01 09:13:55;;;;;;;5.80;4.80;;;2.00;99.90;;;;;;2612013;54;20489;-74
2022/04/01 09:16:28;;;;;;;5.60;5.10;;;2.00;99.90;;;;;;2611071;54;20451;-74
2022/04/01 09:19:02;;;;;;;4.83;4.33;;;2.10;99.90;;;;;;2606116;47;20522;-76
2022/04/01 09:21:30;;;;;;;4.00;3.70;;;2.10;99.90;;;;;;2606494;39;21186;-74
2022/04/01 09:23:57;;;;;;;4.13;3.73;;;2.00;99.90;;;;;;2607248;54;20967;-74
2022/04/01 09:26:32;;;;;;;4.53;4.00;;;2.00;99.90;;;;;;2607658;54;20411;-73
2022/04/01 09:28:59;;;;;;;5.00;4.23;;;2.10;99.90;;;;;;2608621;54;20429;-74
2022/04/01 09:31:29;;;;;;;4.20;3.90;;;2.10;99.90;;;;;;2611888;39;20783;-73
2022/04/01 09:33:55;;;;;;;5.47;5.03;;;2.10;99.90;;;;;;2612322;54;21014;-73
2022/04/01 09:36:29;;;;;;;6.80;4.67;;;2.00;99.90;;;;;;2607384;54;20411;-75
2022/04/01 09:38:56;;;;;;;4.33;4.03;;;2.10;99.90;;;;;;2608666;46;20443;-74
2022/04/01 09:41:32;;;;;;;6.40;5.43;;;2.10;99.90;;;;;;2608195;54;20491;-74
2022/04/01 09:44:17;;;;;;;5.13;4.73;;;2.10;99.90;;;;;;2608382;47;20435;-74
2022/04/01 09:46:44;;;;;;;4.97;3.97;;;2.20;99.90;;;;;;2608748;47;20487;-75
2022/04/01 09:49:12;;;;;;;4.13;3.80;;;2.20;99.90;;;;;;2611398;54;20497;-74
2022/04/01 09:51:42;;;;;;;6.00;4.30;;;2.20;99.90;;;;;;2610888;51;20501;-74
2022/04/01 09:54:09;;;;;;;5.20;3.70;;;2.30;99.90;;;;;;2609912;54;20547;-75
2022/04/01 09:56:42;;;;;;;5.40;3.63;;;2.30;99.90;;;;;;2609456;47;20466;-75
2022/04/01 09:59:09;;;;;;;5.87;5.33;;;2.40;99.90;;;;;;2607322;54;20450;-74
2022/04/01 10:01:37;;;;;;;4.10;3.70;;;2.50;99.90;;;;;;2608977;54;20439;-74
2022/04/01 10:04:04;;;;;;;4.63;4.30;;;2.40;99.90;;;;;;2609529;54;20426;-74
2022/04/01 10:06:33;;;;;;;4.80;4.43;;;2.50;99.90;;;;;;2612099;54;20458;-74
2022/04/01 10:09:26;;;;;;;4.47;3.73;;;2.40;99.90;;;;;;2611324;54;20435;-75
2022/04/01 10:11:52;;;;;;;9.90;5.77;;;2.40;99.90;;;;;;2610942;54;20442;-74
2022/04/01 10:14:25;;;;;;;5.27;4.17;;;2.40;99.90;;;;;;2611877;54;21007;-74
2022/04/01 10:16:51;;;;;;;4.13;3.73;;;2.40;99.90;;;;;;2611461;47;20451;-74
2022/04/01 10:19:24;;;;;;;2.90;2.70;;;2.40;99.90;;;;;;2611166;54;20461;-75
2022/04/01 10:21:51;;;;;;;8.20;6.27;;;2.40;99.90;;;;;;2611683;54;20497;-75
2022/04/01 10:24:39;;;;;;;5.57;4.97;;;2.40;99.90;;;;;;2612910;54;20423;-75
2022/04/01 10:27:47;;;;;;;4.60;4.20;;;2.40;99.90;;;;;;2614680;54;20981;-73
2022/04/01 10:30:16;;;;;;;6.47;5.20;;;2.30;99.90;;;;;;2616108;54;20411;-72
2022/04/01 10:32:44;;;;;;;5.43;4.93;;;2.40;99.90;;;;;;2616714;47;20441;-74
2022/04/01 10:35:23;;;;;;;4.90;4.50;;;2.40;99.90;;;;;;2615989;54;20980;-76
2022/04/01 10:37:54;;;;;;;3.43;3.20;;;2.50;99.90;;;;;;2613864;54;20493;-74
2022/04/01 10:40:20;;;;;;;4.17;3.77;;;2.50;99.90;;;;;;2612768;54;20402;-74
2022/04/01 10:42:47;;;;;;;5.80;5.40;;;2.50;99.90;;;;;;2610353;39;20812;-75
2022/04/01 10:45:16;;;;;;;4.97;4.07;;;2.50;99.90;;;;;;2611372;54;20181;-74
2022/04/01 10:54:01;;;;;;;6.03;5.13;;;2.50;99.90;;;;;;2611588;54;20529;-75
2022/04/01 10:56:33;;;;;;;4.33;3.93;;;2.60;99.90;;;;;;2610609;39;20804;-75
2022/04/01 10:59:11;;;;;;;4.87;4.27;;;2.60;99.90;;;;;;2609753;54;20985;-74
2022/04/01 11:01:39;;;;;;;5.97;5.47;;;2.50;99.90;;;;;;2611039;54;20492;-75
2022/04/01 11:04:16;;;;;;;7.73;5.77;;;2.30;99.90;;;;;;2611302;54;20419;-74
2022/04/01 11:06:56;;;;;;;8.03;5.00;;;2.30;99.90;;;;;;2610920;54;20401;-75
2022/04/01 11:09:33;;;;;;;5.97;4.80;;;2.20;99.90;;;;;;2610893;47;20446;-74
2022/04/01 11:12:18;;;;;;;5.67;4.67;;;2.10;99.90;;;;;;2610795;54;22078;-74
2022/04/01 11:15:07;;;;;;;5.63;5.13;;;2.10;99.90;;;;;;2610741;39;20511;-75
2022/04/01 11:17:44;;;;;;;4.60;4.07;;;2.00;99.90;;;;;;2609758;54;20632;-76
2022/04/01 11:20:13;;;;;;;8.33;6.10;;;2.00;99.90;;;;;;2610699;54;20418;-75
2022/04/01 11:22:45;;;;;;;5.07;4.53;;;2.00;99.90;;;;;;2609810;39;21163;-74
2022/04/01 11:25:31;;;;;;;5.83;5.30;;;2.00;99.90;;;;;;2610609;46;21280;-75
2022/04/01 11:27:57;;;;;;;4.73;4.33;;;2.00;99.90;;;;;;2610077;46;20437;-74
2022/04/01 11:30:31;;;;;;;9.23;6.93;;;2.00;99.90;;;;;;2609986;54;20399;-73
2022/04/01 11:32:59;;;;;;;9.17;5.80;;;2.00;99.90;;;;;;2609684;39;20859;-76
2022/04/01 11:35:30;;;;;;;6.57;5.87;;;2.00;99.90;;;;;;2609735;54;20431;-76
2022/04/01 11:37:58;;;;;;;5.50;5.00;;;2.10;99.90;;;;;;2610781;54;20526;-77
2022/04/01 11:40:27;;;;;;;8.27;6.50;;;2.10;99.90;;;;;;2611505;54;20407;-75
2022/04/01 11:42:59;;;;;;;7.03;6.47;;;2.00;99.90;;;;;;2612860;54;20979;-74
2022/04/01 11:45:27;;;;;;;7.43;5.63;;;2.00;99.90;;;;;;2609013;54;20449;-76
2022/04/01 11:47:54;;;;;;;6.50;6.03;;;2.00;99.90;;;;;;2610863;54;20404;-75
2022/04/01 11:50:22;;;;;;;4.67;4.10;;;2.00;99.90;;;;;;2609688;47;20444;-76
2022/04/01 11:52:56;;;;;;;6.00;5.50;;;2.00;99.90;;;;;;2608509;54;20539;-76
2022/04/01 11:55:27;;;;;;;6.77;6.07;;;2.00;99.90;;;;;;2610498;39;20793;-76
2022/04/01 11:57:56;;;;;;;8.13;6.57;;;2.00;99.90;;;;;;2610766;54;20403;-75
2022/04/01 12:00:27;;;;;;;6.27;5.50;;;2.00;99.90;;;;;;2610751;39;21836;-76
2022/04/01 12:02:54;;;;;;;6.10;4.67;;;2.10;99.90;;;;;;2610485;39;20494;-78
2022/04/01 12:05:21;;;;;;;7.60;5.80;;;2.00;99.90;;;;;;2610800;39;20793;-77
2022/04/01 12:10:54;;;;;;;4.17;3.80;;;1.90;99.90;;;;;;2606800;46;21485;-75
2022/04/01 12:13:20;;;;;;;8.50;4.60;;;1.90;99.90;;;;;;2608116;54;21036;-78
2022/04/01 12:15:48;;;;;;;6.13;5.50;;;2.00;99.90;;;;;;2611061;47;21015;-76
2022/04/01 12:18:18;;;;;;;6.37;5.77;;;1.90;99.90;;;;;;2611807;54;20411;-77
2022/04/01 12:20:47;;;;;;;7.27;6.53;;;2.00;99.90;;;;;;2610769;54;20378;-76
2022/04/01 12:23:13;;;;;;;6.97;5.23;;;2.00;99.90;;;;;;2611634;47;20423;-76
2022/04/01 12:25:40;;;;;;;6.00;5.13;;;1.90;99.90;;;;;;2611453;47;20446;-76
2022/04/01 12:28:12;;;;;;;10.80;6.27;;;2.00;99.90;;;;;;2613160;54;20478;-76
2022/04/01 12:30:43;;;;;;;10.13;7.93;;;2.00;99.90;;;;;;2611775;54;20434;-76
2022/04/01 12:33:25;;;;;;;8.83;6.70;;;2.00;99.90;;;;;;2612354;47;20638;-78
2022/04/01 12:36:00;;;;;;;6.43;4.93;;;2.00;99.90;;;;;;2612394;54;21030;-76
2022/04/01 12:38:29;;;;;;;5.37;4.13;;;2.00;99.90;;;;;;2611570;54;20423;-75
2022/04/01 12:40:57;;;;;;;7.90;5.77;;;1.90;99.90;;;;;;2611334;47;20433;-78
2022/04/01 12:43:38;;;;;;;9.13;7.40;;;1.90;99.90;;;;;;2609608;47;20416;-78
2022/04/01 12:46:04;;;;;;;4.90;4.47;;;2.00;99.90;;;;;;2611165;54;20423;-76
2022/04/01 12:48:38;;;;;;;6.17;4.50;;;1.90;99.90;;;;;;2607530;47;21028;-76
2022/04/01 12:51:04;;;;;;;3.83;3.53;;;1.90;99.90;;;;;;2611228;54;20198;-77
2022/04/01 12:53:31;;;;;;;9.20;5.70;;;2.00;99.90;;;;;;2612935;54;20950;-76
2022/04/01 12:56:19;;;;;;;6.23;5.27;;;2.00;99.90;;;;;;2610687;54;20179;-78
2022/04/01 12:59:11;;;;;;;8.40;6.27;;;2.00;99.90;;;;;;2611975;39;20933;-78
2022/04/01 13:01:41;;;;;;;8.80;7.23;;;2.00;99.90;;;;;;2607424;46;20441;-77
2022/04/01 13:04:09;;;;;;;9.83;6.83;;;2.00;99.90;;;;;;2608381;39;20747;-76
2022/04/01 13:06:35;;;;;;;10.40;8.30;;;2.10;99.90;;;;;;2611141;54;20866;-77
2022/04/01 13:09:07;;;;;;;12.03;6.47;;;2.10;99.90;;;;;;2609789;47;20423;-78
2022/04/01 13:12:04;;;;;;;5.33;3.90;;;2.10;99.90;;;;;;2610226;54;20387;-78
2022/04/01 13:14:34;;;;;;;9.60;7.43;;;2.10;99.90;;;;;;2609576;47;20419;-78
2022/04/01 13:16:59;;;;;;;7.30;5.70;;;2.10;99.90;;;;;;2611356;54;20527;-76
2022/04/01 13:19:30;;;;;;;7.20;6.30;;;2.10;99.90;;;;;;2610514;47;20402;-79
2022/04/01 13:21:59;;;;;;;8.00;5.33;;;2.10;99.90;;;;;;2609038;39;20512;-79
2022/04/01 13:24:39;;;;;;;9.50;6.43;;;2.10;99.90;;;;;;2628851;36;20892;-77
2022/04/01 13:27:08;;;;;;;5.00;3.90;;;2.10;99.90;;;;;;2611928;39;20788;-76
2022/04/01 13:29:35;;;;;;;6.77;6.03;;;2.10;99.90;;;;;;2610721;48;20490;-78
2022/04/01 13:32:02;;;;;;;11.20;7.70;;;2.10;99.90;;;;;;2610988;54;20414;-77